createdAt,value
2023-10-19T00:12:39.098Z,12.02
2023-10-19T00:27:31.613Z,12.07
2023-10-19T00:42:26.409Z,12.09
2023-10-19T00:57:21.409Z,12.12
2023-10-19T01:12:23.381Z,12.15
2023-10-19T01:27:19.990Z,12.16
2023-10-19T01:42:11.742Z,12.21
2023-10-19T01:57:04.270Z,12.29
2023-10-19T02:11:57.311Z,12.35
2023-10-19T02:56:34.232Z,12.55
2023-10-19T03:11:27.127Z,12.58
2023-10-19T03:41:25.703Z,12.70
2023-10-19T03:56:19.038Z,12.76
2023-10-19T04:11:14.463Z,12.75
2023-10-19T04:26:12.341Z,12.67
2023-10-19T04:41:09.627Z,12.58
2023-10-19T04:56:05.587Z,12.48
2023-10-19T05:10:58.887Z,12.42
2023-10-19T05:25:50.539Z,12.40
2023-10-19T05:55:34.376Z,12.38
2023-10-19T06:10:26.492Z,12.41
2023-10-19T06:25:18.897Z,12.45
2023-10-19T06:55:06.330Z,12.71
2023-10-19T07:10:01.741Z,12.88
2023-10-19T07:24:54.694Z,13.02
2023-10-19T07:39:47.219Z,13.20
2023-10-19T07:54:40.577Z,13.45
2023-10-19T08:39:30.422Z,14.35
2023-10-19T08:54:23.845Z,14.51
2023-10-19T09:24:15.833Z,15.09
2023-10-19T09:39:07.953Z,15.37
2023-10-19T09:54:01.361Z,15.61
2023-10-19T10:08:54.275Z,15.73
2023-10-19T10:23:49.476Z,15.72
2023-10-19T10:38:44.048Z,15.71
2023-10-19T10:53:36.221Z,15.66
2023-10-19T11:08:28.380Z,15.61
2023-10-19T11:23:21.312Z,15.61
2023-10-19T11:38:13.818Z,15.64
2023-10-19T11:53:06.868Z,15.75
2023-10-19T12:08:00.163Z,15.90
2023-10-19T12:22:53.267Z,16.07
2023-10-19T12:37:47.220Z,16.24
2023-10-19T12:52:39.761Z,16.26
2023-10-19T13:07:33.899Z,16.36
2023-10-19T13:22:28.077Z,16.39
2023-10-19T13:37:20.613Z,16.33
2023-10-19T13:52:13.134Z,16.25
2023-10-19T14:07:09.626Z,16.22
2023-10-19T14:22:02.357Z,16.31
2023-10-19T14:36:55.722Z,16.40
2023-10-19T14:51:48.449Z,16.56
2023-10-19T16:21:10.390Z,16.36
2023-10-19T18:50:36.156Z,16.26
2023-10-19T19:35:17.467Z,16.21
2023-10-19T19:50:10.368Z,16.16
2023-10-19T20:05:02.334Z,16.13
2023-10-19T20:19:55.494Z,16.08
2023-10-19T20:34:47.666Z,16.08
2023-10-19T21:04:51.134Z,16.10
2023-10-19T21:19:42.893Z,16.12
2023-10-19T21:34:35.671Z,16.06
2023-10-19T21:49:28.803Z,16.04
2023-10-19T22:04:20.530Z,16.05
2023-10-19T22:19:12.196Z,16.12
2023-10-19T22:34:04.063Z,16.06
2023-10-19T22:48:56.665Z,16.02
2023-10-19T23:03:49.611Z,15.95
2023-10-19T23:18:43.025Z,15.95
2023-10-19T23:33:35.916Z,15.94
2023-10-19T23:48:27.680Z,15.93
